EWG2TC LOWW-EDDS
Flight info
| Callsign | EWG2TC |
|---|---|
| Flight time | 0h 59m |
| Altitude | 30000 |
| Route | LUGEM DCT KIRDI DCT EBEDA L173 MAH/N0380F240 L173 DODIL T127 TEKSI TEKSI5A |
| Aircraft | A320/M-SDE3FGHIRWY/LB1 |
Departure
| Time | 2026-04-26 17:12 |
|---|---|
| Airport | Vienna International Airport (LOWW) |
Arrival
| Time | 2026-04-26 18:11 |
|---|---|
| Airport | Stuttgart Airport (EDDS) |
| Time | Latitude | Longitude | Altitude | Speed | Heading |
|---|---|---|---|---|---|
| 2026-04-26 16:35 | 48.11907 | 16.55704 | 605 ft | 0 kts | 26° |
| 2026-04-26 17:03 | 48.11899 | 16.55698 | 605 ft | 3 kts | 25° |
| 2026-04-26 17:03 | 48.11881 | 16.55686 | 607 ft | 3 kts | 20° |
| 2026-04-26 17:03 | 48.11861 | 16.55676 | 608 ft | 3 kts | 13° |
| 2026-04-26 17:04 | 48.11842 | 16.55672 | 609 ft | 3 kts | 355° |
| 2026-04-26 17:04 | 48.11825 | 16.55678 | 610 ft | 3 kts | 314° |
| 2026-04-26 17:04 | 48.11819 | 16.55689 | 610 ft | 1 kts | 295° |
| 2026-04-26 17:04 | 48.11818 | 16.55692 | 610 ft | 2 kts | 295° |
| 2026-04-26 17:06 | 48.11820 | 16.55686 | 610 ft | 5 kts | 294° |
| 2026-04-26 17:07 | 48.11792 | 16.55591 | 611 ft | 16 kts | 191° |
| 2026-04-26 17:07 | 48.11733 | 16.55670 | 613 ft | 21 kts | 117° |
| 2026-04-26 17:07 | 48.11668 | 16.55874 | 616 ft | 20 kts | 116° |
| 2026-04-26 17:07 | 48.11601 | 16.56078 | 616 ft | 26 kts | 116° |
| 2026-04-26 17:08 | 48.11511 | 16.56354 | 613 ft | 33 kts | 118° |
| 2026-04-26 17:08 | 48.11422 | 16.56622 | 614 ft | 24 kts | 115° |
| 2026-04-26 17:08 | 48.11361 | 16.56812 | 616 ft | 16 kts | 116° |
| 2026-04-26 17:08 | 48.11315 | 16.56955 | 620 ft | 17 kts | 115° |
| 2026-04-26 17:09 | 48.11263 | 16.57090 | 620 ft | 16 kts | 120° |
| 2026-04-26 17:09 | 48.11234 | 16.57201 | 620 ft | 18 kts | 114° |
| 2026-04-26 17:09 | 48.11152 | 16.57450 | 616 ft | 23 kts | 115° |
| 2026-04-26 17:09 | 48.11078 | 16.57639 | 616 ft | 17 kts | 150° |
| 2026-04-26 17:10 | 48.10987 | 16.57602 | 619 ft | 11 kts | 216° |
| 2026-04-26 17:10 | 48.10927 | 16.57541 | 620 ft | 11 kts | 243° |
| 2026-04-26 17:10 | 48.10928 | 16.57493 | 620 ft | 0 kts | 288° |
| 2026-04-26 17:11 | 48.10947 | 16.57434 | 621 ft | 30 kts | 295° |
| 2026-04-26 17:12 | 48.11628 | 16.55321 | 630 ft | 180 kts | 294° |
| 2026-04-26 17:12 | 48.12120 | 16.53535 | 1293 ft | 192 kts | 288° |
| 2026-04-26 17:13 | 48.12240 | 16.49174 | 2828 ft | 217 kts | 259° |
| 2026-04-26 17:13 | 48.11916 | 16.46980 | 4014 ft | 225 kts | 252° |
| 2026-04-26 17:13 | 48.10767 | 16.41829 | 4735 ft | 286 kts | 252° |
| 2026-04-26 17:14 | 48.10205 | 16.39088 | 4792 ft | 265 kts | 253° |
| 2026-04-26 17:14 | 48.09854 | 16.33869 | 4800 ft | 251 kts | 271° |
| 2026-04-26 17:14 | 48.09893 | 16.31290 | 4865 ft | 247 kts | 271° |
| 2026-04-26 17:15 | 48.09980 | 16.26239 | 5054 ft | 238 kts | 271° |
| 2026-04-26 17:15 | 48.10026 | 16.23794 | 5176 ft | 232 kts | 271° |
| 2026-04-26 17:15 | 48.10068 | 16.21390 | 5314 ft | 234 kts | 271° |
| 2026-04-26 17:16 | 48.10233 | 16.18939 | 5744 ft | 239 kts | 277° |
| 2026-04-26 17:16 | 48.10462 | 16.16458 | 6235 ft | 242 kts | 277° |
| 2026-04-26 17:16 | 48.10689 | 16.13955 | 6722 ft | 244 kts | 277° |
| 2026-04-26 17:16 | 48.10918 | 16.11429 | 7203 ft | 246 kts | 277° |
| 2026-04-26 17:17 | 48.11147 | 16.08886 | 7673 ft | 248 kts | 277° |
| 2026-04-26 17:17 | 48.11378 | 16.06318 | 8139 ft | 250 kts | 277° |
| 2026-04-26 17:17 | 48.11610 | 16.03730 | 8596 ft | 252 kts | 277° |
| 2026-04-26 17:17 | 48.11843 | 16.01116 | 9048 ft | 254 kts | 277° |
| 2026-04-26 17:18 | 48.12078 | 15.98484 | 9547 ft | 257 kts | 277° |
| 2026-04-26 17:18 | 48.12317 | 15.95823 | 10353 ft | 259 kts | 277° |
| 2026-04-26 17:18 | 48.12560 | 15.93135 | 11054 ft | 262 kts | 277° |
| 2026-04-26 17:18 | 48.12800 | 15.90446 | 11682 ft | 266 kts | 277° |
| 2026-04-26 17:19 | 48.13294 | 15.84868 | 12912 ft | 271 kts | 277° |
| 2026-04-26 17:19 | 48.13539 | 15.82097 | 13485 ft | 274 kts | 277° |
| 2026-04-26 17:19 | 48.13788 | 15.79260 | 14045 ft | 276 kts | 277° |
| 2026-04-26 17:20 | 48.14040 | 15.76393 | 14580 ft | 279 kts | 277° |
| 2026-04-26 17:20 | 48.14211 | 15.74441 | 14930 ft | 281 kts | 277° |
| 2026-04-26 17:20 | 48.14550 | 15.70575 | 15594 ft | 284 kts | 277° |
| 2026-04-26 17:20 | 48.14806 | 15.67625 | 16073 ft | 287 kts | 277° |
| 2026-04-26 17:21 | 48.15062 | 15.64646 | 16539 ft | 290 kts | 277° |
| 2026-04-26 17:21 | 48.15319 | 15.61641 | 16996 ft | 292 kts | 277° |
| 2026-04-26 17:21 | 48.15579 | 15.58603 | 17482 ft | 295 kts | 277° |
| 2026-04-26 17:21 | 48.15842 | 15.55548 | 17914 ft | 297 kts | 277° |
| 2026-04-26 17:22 | 48.16107 | 15.52465 | 18330 ft | 299 kts | 277° |
| 2026-04-26 17:22 | 48.16371 | 15.49362 | 18731 ft | 302 kts | 277° |
| 2026-04-26 17:22 | 48.16638 | 15.46230 | 19123 ft | 304 kts | 277° |
| 2026-04-26 17:22 | 48.16903 | 15.43080 | 19500 ft | 306 kts | 277° |
| 2026-04-26 17:23 | 48.17168 | 15.39903 | 19867 ft | 308 kts | 276° |
| 2026-04-26 17:23 | 48.17292 | 15.36688 | 20220 ft | 310 kts | 271° |
| 2026-04-26 17:23 | 48.17370 | 15.33451 | 20567 ft | 312 kts | 271° |
| 2026-04-26 17:23 | 48.17449 | 15.30186 | 20889 ft | 315 kts | 271° |
| 2026-04-26 17:24 | 48.17528 | 15.26897 | 21206 ft | 317 kts | 271° |
| 2026-04-26 17:24 | 48.17605 | 15.23585 | 21521 ft | 319 kts | 271° |
| 2026-04-26 17:24 | 48.17681 | 15.20251 | 21826 ft | 321 kts | 271° |
| 2026-04-26 17:24 | 48.17758 | 15.16892 | 22102 ft | 324 kts | 271° |
| 2026-04-26 17:25 | 48.17837 | 15.13510 | 22386 ft | 326 kts | 271° |
| 2026-04-26 17:25 | 48.17914 | 15.10105 | 22665 ft | 328 kts | 271° |
| 2026-04-26 17:25 | 48.17988 | 15.06714 | 22929 ft | 330 kts | 271° |
| 2026-04-26 17:25 | 48.18062 | 15.03271 | 23167 ft | 332 kts | 271° |
| 2026-04-26 17:26 | 48.18136 | 14.99803 | 23414 ft | 334 kts | 271° |
| 2026-04-26 17:26 | 48.18211 | 14.96319 | 23661 ft | 336 kts | 271° |
| 2026-04-26 17:26 | 48.18287 | 14.92814 | 23897 ft | 337 kts | 271° |
| 2026-04-26 17:26 | 48.18364 | 14.89274 | 23998 ft | 344 kts | 271° |
| 2026-04-26 17:27 | 48.18441 | 14.85651 | 24017 ft | 352 kts | 271° |
| 2026-04-26 17:27 | 48.18515 | 14.81945 | 24017 ft | 360 kts | 271° |
| 2026-04-26 17:27 | 48.18590 | 14.78142 | 24016 ft | 368 kts | 271° |
| 2026-04-26 17:27 | 48.18666 | 14.74272 | 24016 ft | 376 kts | 271° |
| 2026-04-26 17:28 | 48.18741 | 14.70319 | 24016 ft | 383 kts | 271° |
| 2026-04-26 17:28 | 48.18815 | 14.66294 | 24016 ft | 390 kts | 271° |
| 2026-04-26 17:28 | 48.18888 | 14.62194 | 24016 ft | 396 kts | 271° |
| 2026-04-26 17:28 | 48.18962 | 14.58032 | 24016 ft | 402 kts | 271° |
| 2026-04-26 17:29 | 48.19038 | 14.53813 | 24016 ft | 408 kts | 271° |
| 2026-04-26 17:29 | 48.19086 | 14.50981 | 24016 ft | 411 kts | 271° |
| 2026-04-26 17:29 | 48.19183 | 14.45208 | 24016 ft | 417 kts | 271° |
| 2026-04-26 17:29 | 48.19255 | 14.40836 | 24016 ft | 422 kts | 271° |
| 2026-04-26 17:30 | 48.19326 | 14.36480 | 24016 ft | 426 kts | 271° |
| 2026-04-26 17:30 | 48.19398 | 14.32034 | 24016 ft | 427 kts | 271° |
| 2026-04-26 17:30 | 48.19470 | 14.27582 | 24016 ft | 428 kts | 271° |
| 2026-04-26 17:30 | 48.19541 | 14.23122 | 24016 ft | 428 kts | 271° |
| 2026-04-26 17:31 | 48.19607 | 14.18667 | 24016 ft | 428 kts | 271° |
| 2026-04-26 17:31 | 48.19670 | 14.14207 | 24016 ft | 428 kts | 271° |
| 2026-04-26 17:31 | 48.19729 | 14.09746 | 24016 ft | 428 kts | 271° |
| 2026-04-26 17:31 | 48.19786 | 14.05284 | 24016 ft | 428 kts | 271° |
| 2026-04-26 17:32 | 48.19843 | 14.00827 | 24016 ft | 428 kts | 271° |
| 2026-04-26 17:32 | 48.19897 | 13.96370 | 24016 ft | 428 kts | 271° |
| 2026-04-26 17:32 | 48.19951 | 13.91910 | 24016 ft | 428 kts | 271° |
| 2026-04-26 17:32 | 48.20007 | 13.87454 | 24016 ft | 428 kts | 271° |
| 2026-04-26 17:33 | 48.20064 | 13.82993 | 24016 ft | 428 kts | 271° |
| 2026-04-26 17:33 | 48.20116 | 13.78535 | 24016 ft | 428 kts | 270° |
| 2026-04-26 17:33 | 48.20163 | 13.74080 | 24016 ft | 428 kts | 270° |
| 2026-04-26 17:34 | 48.20256 | 13.65157 | 24016 ft | 428 kts | 270° |
| 2026-04-26 17:34 | 48.20299 | 13.60697 | 24016 ft | 428 kts | 270° |
| 2026-04-26 17:34 | 48.20338 | 13.56233 | 24016 ft | 428 kts | 270° |
| 2026-04-26 17:34 | 48.20376 | 13.51781 | 24016 ft | 428 kts | 270° |
| 2026-04-26 17:35 | 48.20412 | 13.47377 | 24016 ft | 428 kts | 270° |
| 2026-04-26 17:35 | 48.20446 | 13.42922 | 24016 ft | 428 kts | 270° |
| 2026-04-26 17:35 | 48.20479 | 13.38467 | 24016 ft | 428 kts | 270° |
| 2026-04-26 17:35 | 48.20515 | 13.34011 | 24016 ft | 427 kts | 270° |
| 2026-04-26 17:36 | 48.20550 | 13.29548 | 24016 ft | 427 kts | 270° |
| 2026-04-26 17:36 | 48.20582 | 13.25095 | 24016 ft | 427 kts | 270° |
| 2026-04-26 17:36 | 48.20611 | 13.20641 | 24016 ft | 427 kts | 270° |
| 2026-04-26 17:36 | 48.20637 | 13.16183 | 24016 ft | 427 kts | 270° |
| 2026-04-26 17:37 | 48.20659 | 13.11724 | 24016 ft | 427 kts | 270° |
| 2026-04-26 17:37 | 48.20679 | 13.07269 | 24016 ft | 427 kts | 270° |
| 2026-04-26 17:37 | 48.20699 | 13.02814 | 24016 ft | 427 kts | 270° |
| 2026-04-26 17:38 | 48.20737 | 12.93901 | 24016 ft | 427 kts | 270° |
| 2026-04-26 17:38 | 48.20750 | 12.89437 | 24016 ft | 427 kts | 270° |
| 2026-04-26 17:38 | 48.20761 | 12.84979 | 24016 ft | 428 kts | 270° |
| 2026-04-26 17:38 | 48.20663 | 12.80532 | 24015 ft | 427 kts | 264° |
| 2026-04-26 17:39 | 48.20377 | 12.76151 | 24016 ft | 427 kts | 264° |
| 2026-04-26 17:39 | 48.20087 | 12.71720 | 24016 ft | 427 kts | 264° |
| 2026-04-26 17:39 | 48.19791 | 12.67290 | 24016 ft | 427 kts | 264° |
| 2026-04-26 17:39 | 48.19494 | 12.62860 | 24016 ft | 427 kts | 264° |
| 2026-04-26 17:40 | 48.19198 | 12.58430 | 24016 ft | 427 kts | 264° |
| 2026-04-26 17:40 | 48.19098 | 12.56933 | 24016 ft | 427 kts | 264° |
| 2026-04-26 17:40 | 48.18604 | 12.49569 | 24016 ft | 427 kts | 264° |
| 2026-04-26 17:40 | 48.18305 | 12.45146 | 24016 ft | 427 kts | 264° |
| 2026-04-26 17:41 | 48.18000 | 12.40709 | 24016 ft | 427 kts | 264° |
| 2026-04-26 17:41 | 48.17692 | 12.36289 | 24016 ft | 427 kts | 264° |
| 2026-04-26 17:41 | 48.17382 | 12.31862 | 24016 ft | 427 kts | 264° |
| 2026-04-26 17:41 | 48.17071 | 12.27439 | 24016 ft | 427 kts | 264° |
| 2026-04-26 17:42 | 48.16759 | 12.23017 | 24016 ft | 427 kts | 264° |
| 2026-04-26 17:42 | 48.16444 | 12.18598 | 24016 ft | 427 kts | 263° |
| 2026-04-26 17:42 | 48.16142 | 12.14174 | 24015 ft | 427 kts | 266° |
| 2026-04-26 17:42 | 48.16334 | 12.09754 | 24015 ft | 427 kts | 282° |
| 2026-04-26 17:43 | 48.17262 | 12.05530 | 24020 ft | 428 kts | 291° |
| 2026-04-26 17:43 | 48.18371 | 12.01382 | 24015 ft | 428 kts | 291° |
| 2026-04-26 17:43 | 48.19496 | 11.97246 | 24016 ft | 428 kts | 292° |
| 2026-04-26 17:43 | 48.20623 | 11.93122 | 24016 ft | 428 kts | 292° |
| 2026-04-26 17:44 | 48.21750 | 11.88988 | 24016 ft | 428 kts | 292° |
| 2026-04-26 17:44 | 48.22870 | 11.84855 | 24016 ft | 428 kts | 291° |
| 2026-04-26 17:44 | 48.23985 | 11.80719 | 24016 ft | 428 kts | 291° |
| 2026-04-26 17:44 | 48.25097 | 11.76582 | 24016 ft | 428 kts | 291° |
| 2026-04-26 17:45 | 48.26193 | 11.72493 | 24016 ft | 428 kts | 291° |
| 2026-04-26 17:45 | 48.27303 | 11.68353 | 24016 ft | 428 kts | 291° |
| 2026-04-26 17:45 | 48.28413 | 11.64209 | 24016 ft | 428 kts | 291° |
| 2026-04-26 17:45 | 48.29536 | 11.60010 | 24016 ft | 428 kts | 291° |
| 2026-04-26 17:46 | 48.30642 | 11.55870 | 24016 ft | 428 kts | 291° |
| 2026-04-26 17:46 | 48.31735 | 11.51774 | 24016 ft | 428 kts | 291° |
| 2026-04-26 17:46 | 48.32840 | 11.47619 | 24016 ft | 428 kts | 291° |
| 2026-04-26 17:46 | 48.33941 | 11.43463 | 24016 ft | 428 kts | 291° |
| 2026-04-26 17:47 | 48.35038 | 11.39310 | 24016 ft | 428 kts | 291° |
| 2026-04-26 17:47 | 48.35409 | 11.37902 | 24016 ft | 428 kts | 291° |
| 2026-04-26 17:47 | 48.37228 | 11.31001 | 24016 ft | 427 kts | 291° |
| 2026-04-26 17:47 | 48.38321 | 11.26838 | 24016 ft | 427 kts | 291° |
| 2026-04-26 17:48 | 48.39408 | 11.22680 | 24016 ft | 427 kts | 291° |
| 2026-04-26 17:48 | 48.40496 | 11.18522 | 24014 ft | 427 kts | 291° |
| 2026-04-26 17:48 | 48.41593 | 11.14330 | 23087 ft | 434 kts | 291° |
| 2026-04-26 17:48 | 48.42715 | 11.10047 | 21809 ft | 445 kts | 291° |
| 2026-04-26 17:49 | 48.43859 | 11.05666 | 20765 ft | 451 kts | 291° |
| 2026-04-26 17:49 | 48.44991 | 11.01310 | 20321 ft | 440 kts | 291° |
| 2026-04-26 17:49 | 48.46085 | 10.97087 | 20114 ft | 425 kts | 291° |
| 2026-04-26 17:49 | 48.47138 | 10.93018 | 19985 ft | 408 kts | 291° |
| 2026-04-26 17:50 | 48.48143 | 10.89128 | 20014 ft | 389 kts | 291° |
| 2026-04-26 17:50 | 48.49105 | 10.85408 | 20015 ft | 372 kts | 291° |
| 2026-04-26 17:50 | 48.50029 | 10.81830 | 19978 ft | 361 kts | 291° |
| 2026-04-26 17:50 | 48.50949 | 10.78260 | 19007 ft | 373 kts | 291° |
| 2026-04-26 17:51 | 48.51901 | 10.74562 | 17811 ft | 383 kts | 291° |
| 2026-04-26 17:51 | 48.52878 | 10.70763 | 16428 ft | 394 kts | 291° |
| 2026-04-26 17:51 | 48.53881 | 10.66862 | 14956 ft | 404 kts | 291° |
| 2026-04-26 17:51 | 48.54905 | 10.62868 | 13394 ft | 412 kts | 290° |
| 2026-04-26 17:52 | 48.55937 | 10.58825 | 12124 ft | 412 kts | 290° |
| 2026-04-26 17:52 | 48.56949 | 10.54864 | 11491 ft | 394 kts | 290° |
| 2026-04-26 17:52 | 48.57908 | 10.51105 | 10953 ft | 376 kts | 290° |
| 2026-04-26 17:52 | 48.58807 | 10.47577 | 10995 ft | 344 kts | 290° |
| 2026-04-26 17:53 | 48.59360 | 10.45403 | 11010 ft | 326 kts | 290° |
| 2026-04-26 17:53 | 48.60141 | 10.42326 | 11013 ft | 302 kts | 290° |
| 2026-04-26 17:53 | 48.60863 | 10.39471 | 11012 ft | 280 kts | 290° |
| 2026-04-26 17:54 | 48.61058 | 10.34181 | 11297 ft | 223 kts | 264° |
| 2026-04-26 17:54 | 48.60922 | 10.31748 | 11183 ft | 250 kts | 265° |
| 2026-04-26 17:54 | 48.60800 | 10.28978 | 11110 ft | 278 kts | 267° |
| 2026-04-26 17:54 | 48.60739 | 10.25936 | 11108 ft | 297 kts | 269° |
| 2026-04-26 17:55 | 48.60665 | 10.22787 | 11065 ft | 301 kts | 266° |
| 2026-04-26 17:55 | 48.60531 | 10.19621 | 11087 ft | 302 kts | 265° |
| 2026-04-26 17:55 | 48.60361 | 10.16456 | 11120 ft | 303 kts | 264° |
| 2026-04-26 17:55 | 48.60154 | 10.13293 | 11159 ft | 303 kts | 263° |
| 2026-04-26 17:56 | 48.60027 | 10.10107 | 10957 ft | 304 kts | 269° |
| 2026-04-26 17:56 | 48.59831 | 10.03778 | 11082 ft | 303 kts | 266° |
| 2026-04-26 17:57 | 48.59529 | 9.97438 | 11086 ft | 303 kts | 265° |
| 2026-04-26 17:57 | 48.59355 | 9.94271 | 11100 ft | 303 kts | 264° |
| 2026-04-26 17:57 | 48.59167 | 9.91141 | 11123 ft | 303 kts | 264° |
| 2026-04-26 17:57 | 48.58962 | 9.87973 | 11153 ft | 303 kts | 264° |
| 2026-04-26 17:58 | 48.58253 | 9.78477 | 11295 ft | 304 kts | 262° |
| 2026-04-26 17:59 | 48.57701 | 9.72142 | 11431 ft | 304 kts | 262° |
| 2026-04-26 17:59 | 48.57387 | 9.68967 | 11316 ft | 309 kts | 257° |
| 2026-04-26 17:59 | 48.56694 | 9.65875 | 10765 ft | 312 kts | 251° |
| 2026-04-26 17:59 | 48.56020 | 9.62719 | 10110 ft | 318 kts | 253° |
| 2026-04-26 18:00 | 48.55491 | 9.59487 | 9689 ft | 316 kts | 258° |
| 2026-04-26 18:00 | 48.55134 | 9.56222 | 9275 ft | 314 kts | 263° |
| 2026-04-26 18:00 | 48.54947 | 9.52949 | 8849 ft | 312 kts | 265° |
| 2026-04-26 18:00 | 48.54589 | 9.49713 | 8268 ft | 315 kts | 256° |
| 2026-04-26 18:01 | 48.54056 | 9.46534 | 7994 ft | 307 kts | 255° |
| 2026-04-26 18:01 | 48.53509 | 9.43512 | 7973 ft | 291 kts | 253° |
| 2026-04-26 18:01 | 48.52933 | 9.40603 | 7793 ft | 290 kts | 253° |
| 2026-04-26 18:01 | 48.52349 | 9.37669 | 7219 ft | 295 kts | 253° |
| 2026-04-26 18:02 | 48.51763 | 9.34682 | 6631 ft | 299 kts | 253° |
| 2026-04-26 18:02 | 48.51344 | 9.32713 | 6412 ft | 294 kts | 246° |
| 2026-04-26 18:02 | 48.50654 | 9.28868 | 6209 ft | 283 kts | 267° |
| 2026-04-26 18:02 | 48.50811 | 9.25898 | 5695 ft | 285 kts | 281° |
| 2026-04-26 18:03 | 48.51276 | 9.23025 | 5409 ft | 279 kts | 285° |
| 2026-04-26 18:03 | 48.51846 | 9.20269 | 5123 ft | 271 kts | 284° |
| 2026-04-26 18:03 | 48.52139 | 9.17474 | 4689 ft | 268 kts | 274° |
| 2026-04-26 18:03 | 48.52287 | 9.14699 | 4250 ft | 261 kts | 274° |
| 2026-04-26 18:04 | 48.52403 | 9.12052 | 3744 ft | 244 kts | 272° |
| 2026-04-26 18:04 | 48.52466 | 9.09619 | 3645 ft | 224 kts | 270° |
| 2026-04-26 18:04 | 48.52466 | 9.07357 | 3703 ft | 203 kts | 268° |
| 2026-04-26 18:05 | 48.52541 | 9.03285 | 4099 ft | 228 kts | 271° |
| 2026-04-26 18:05 | 48.52603 | 9.00684 | 4179 ft | 261 kts | 271° |
| 2026-04-26 18:05 | 48.52872 | 8.97967 | 4524 ft | 270 kts | 288° |
| 2026-04-26 18:05 | 48.53860 | 8.95643 | 4581 ft | 260 kts | 320° |
| 2026-04-26 18:06 | 48.55542 | 8.94671 | 3885 ft | 270 kts | 356° |
| 2026-04-26 18:06 | 48.57357 | 8.94711 | 3766 ft | 242 kts | 2° |
| 2026-04-26 18:06 | 48.58962 | 8.94834 | 3856 ft | 228 kts | 3° |
| 2026-04-26 18:06 | 48.60527 | 8.94990 | 3913 ft | 215 kts | 3° |
| 2026-04-26 18:07 | 48.61978 | 8.95131 | 3895 ft | 203 kts | 3° |
| 2026-04-26 18:07 | 48.63332 | 8.95424 | 3838 ft | 193 kts | 20° |
| 2026-04-26 18:07 | 48.64447 | 8.96398 | 3850 ft | 178 kts | 33° |
| 2026-04-26 18:07 | 48.65127 | 8.97089 | 3829 ft | 170 kts | 34° |
| 2026-04-26 18:08 | 48.66227 | 8.98667 | 3656 ft | 163 kts | 51° |
| 2026-04-26 18:08 | 48.66693 | 9.00193 | 3465 ft | 166 kts | 84° |
| 2026-04-26 18:08 | 48.66691 | 9.02070 | 3752 ft | 190 kts | 95° |
| 2026-04-26 18:08 | 48.66570 | 9.04166 | 3690 ft | 204 kts | 96° |
| 2026-04-26 18:09 | 48.66422 | 9.06348 | 3275 ft | 213 kts | 97° |
| 2026-04-26 18:09 | 48.66277 | 9.08608 | 2943 ft | 212 kts | 95° |
| 2026-04-26 18:09 | 48.66470 | 9.10689 | 2843 ft | 194 kts | 67° |
| 2026-04-26 18:09 | 48.67036 | 9.12568 | 2491 ft | 193 kts | 65° |
| 2026-04-26 18:10 | 48.67508 | 9.14427 | 2238 ft | 187 kts | 75° |
| 2026-04-26 18:10 | 48.67815 | 9.16330 | 1883 ft | 187 kts | 72° |
| 2026-04-26 18:10 | 48.68222 | 9.18186 | 1594 ft | 194 kts | 73° |
| 2026-04-26 18:10 | 48.68608 | 9.20187 | 1358 ft | 197 kts | 74° |
| 2026-04-26 18:11 | 48.68955 | 9.22022 | 1285 ft | 155 kts | 74° |
| 2026-04-26 18:11 | 48.69193 | 9.23306 | 1285 ft | 84 kts | 74° |
| 2026-04-26 18:11 | 48.69311 | 9.23900 | 1285 ft | 48 kts | 75° |
| 2026-04-26 18:11 | 48.69403 | 9.24286 | 1285 ft | 25 kts | 45° |
| 2026-04-26 18:12 | 48.69465 | 9.24321 | 1285 ft | 1 kts | 1° |
| 2026-04-26 18:12 | 48.69513 | 9.24303 | 1285 ft | 0 kts | 336° |
| 2026-04-26 18:13 | 48.69531 | 9.24296 | 1285 ft | 12 kts | 343° |
| 2026-04-26 18:13 | 48.69586 | 9.24220 | 1285 ft | 20 kts | 305° |
| 2026-04-26 18:14 | 48.69567 | 9.23888 | 1285 ft | 29 kts | 255° |
| 2026-04-26 18:14 | 48.69506 | 9.23555 | 1285 ft | 32 kts | 253° |
| 2026-04-26 18:14 | 48.69438 | 9.23198 | 1285 ft | 38 kts | 254° |
| 2026-04-26 18:14 | 48.69364 | 9.22797 | 1285 ft | 38 kts | 254° |
| 2026-04-26 18:15 | 48.69303 | 9.22487 | 1285 ft | 29 kts | 254° |
| 2026-04-26 18:15 | 48.69248 | 9.22188 | 1285 ft | 30 kts | 253° |
| 2026-04-26 18:15 | 48.69188 | 9.21885 | 1285 ft | 30 kts | 253° |
| 2026-04-26 18:15 | 48.69131 | 9.21575 | 1285 ft | 31 kts | 253° |
| 2026-04-26 18:16 | 48.69071 | 9.21263 | 1285 ft | 31 kts | 254° |
| 2026-04-26 18:16 | 48.68973 | 9.20749 | 1285 ft | 7 kts | 254° |
| 2026-04-26 18:16 | 48.68968 | 9.20728 | 1285 ft | 0 kts | 254° |
| 2026-04-26 18:17 | 48.68968 | 9.20725 | 1285 ft | 2 kts | 254° |
| 2026-04-26 18:17 | 48.68950 | 9.20629 | 1285 ft | 16 kts | 253° |
| 2026-04-26 18:17 | 48.68907 | 9.20403 | 1285 ft | 28 kts | 253° |
| 2026-04-26 18:17 | 48.68855 | 9.20128 | 1285 ft | 26 kts | 254° |
| 2026-04-26 18:18 | 48.68827 | 9.19918 | 1285 ft | 0 kts | 287° |
| 2026-04-26 18:18 | 48.68829 | 9.19913 | 1285 ft | 0 kts | 294° |
| 2026-04-26 18:18 | 48.68832 | 9.19904 | 1285 ft | 6 kts | 302° |
| 2026-04-26 18:18 | 48.68854 | 9.19882 | 1285 ft | 0 kts | 338° |
| 2026-04-26 18:19 | 48.68864 | 9.19877 | 1285 ft | 7 kts | 339° |
| 2026-04-26 18:19 | 48.68933 | 9.19792 | 1285 ft | 17 kts | 342° |
| 2026-04-26 18:19 | 48.68962 | 9.19779 | 1285 ft | 0 kts | 343° |